Search for airport 
image banner adimage banner adimage banner ad
image banner ad

MHTG - Toncontin

Located in Tegucigalpa, Honduras

ICAO - MHTG, IATA - TGU

Data provided by Airmate  

General information

Coordinates: N14°3'37" W87°13'3"
Elevation is 3307 feet MSL.
 
View others Airports in Francisco Morazan

Operational data

Special qualification required
Current time UTC:
Current local time:
Weather
METAR: MHTG 060000Z 00000KT 8000 -TSRA FEW008 FEW030CB BKN080 20/18 Q1018 A3006 NOSIG
TAF: TAF MHTG 052220Z 0600/0624 17006KT 5000 TSRA SCT028TCU SCT030CB BKN090 TX29/0621Z TN18/0612Z BECMG 0604/0606 VRB02KT 9999 NSW SCT026 SCT090 BECMG 0615/0617 08005KT SCT032TCU BECMG 0621/0623 6000 -TSRA SCT030CB SCT090
View NOTAMs / SUP AIP / TFR affecting this airport [VIEW]
Communications frequencies: [VIEW]

Runways:

RWY identifierQFULength (ft)Width (ft)SurfaceLDA (ft)
0219°6631148ASP
20199°6631148

Airport contact information

Address: Tegucigalpa Honduras

Satellite view of MHTG